Latest Weather Observations for Geelong Racecourse

IDV60901

Issued at 9:51 pm EST Thursday 25 April 2024 (issued every 10 minutes, with the page automatically refreshed every 10 minutes)

About weather observations | Map of Melbourne area stations | Latest observations for Melbourne area | Other Formats
Station Details ID: 087184 Name: GEELONG RACECOURSE Lat: -38.17 Lon: 144.38 Height: 12.9 m
Data from the previous 72 hours. | See also: Recent months at Geelong Racecourse
Date/Time
EST
Temp
°C
App
Temp
°C
Dew
Point
°C
Rel
Hum
%
Delta-T
°C
Wind Press
QNH
hPa
Press
MSL
hPa
Rain since
9am
mm
Dir  Spd
km/h
Gust
km/h
Spd
kts
Gust
kts
25/09:30pm 11.8 8.8 7.9 77 1.9 W 13 19 7 10 1026.1 1026.1 0.2
25/09:00pm 11.6 9.7 7.5 76 2.0 SW 7 11 4 6 1026.2 1026.2 0.2
25/08:30pm 12.3 8.8 7.2 71 2.5 WSW 15 22 8 12 1026.1 1026.1 0.2
25/08:00pm 12.7 10.2 6.5 66 2.9 SW 9 15 5 8 1026.0 1026.0 0.2
25/07:30pm 12.8 10.0 6.8 67 2.9 SW 11 15 6 8 1026.0 1026.0 0.2
25/07:00pm 13.3 10.3 6.2 62 3.4 WSW 11 19 6 10 1025.7 1025.7 0.2
25/06:30pm 13.4 11.4 7.2 66 3.0 SW 7 11 4 6 1025.5 1025.5 0.2
25/06:00pm 13.8 10.6 6.7 62 3.4 SW 13 20 7 11 1025.3 1025.3 0.2
25/05:30pm 14.0 10.5 7.3 64 3.3 SSW 15 22 8 12 1025.0 1025.0 0.2
25/05:00pm 14.2 10.2 8.2 67 3.0 SSW 19 26 10 14 1024.8 1024.8 0.2
25/04:30pm 14.5 11.4 8.7 68 2.9 SSW 15 20 8 11 1024.7 1024.7 0.2
25/04:00pm 14.7 10.8 8.6 67 3.1 S 19 28 10 15 1024.6 1024.6 0.2
25/03:30pm 15.2 11.5 8.0 62 3.6 SSW 17 24 9 13 1024.5 1024.5 0.2
25/03:00pm 16.3 13.8 8.0 58 4.2 S 11 17 6 9 1024.4 1024.4 0.2
25/02:30pm 15.5 11.2 7.0 57 4.2 SSW 19 24 10 13 1024.6 1024.6 0.2
25/02:00pm 15.5 11.8 7.8 60 3.8 SW 17 24 9 13 1024.5 1024.5 0.2
25/01:30pm 15.2 12.7 8.0 62 3.6 SSW 11 17 6 9 1024.6 1024.6 0.2
25/01:00pm 15.8 12.9 8.1 60 3.9 SW 13 19 7 10 1024.6 1024.6 0.0
25/12:30pm 16.0 12.6 9.0 63 3.6 SW 17 20 9 11 1025.0 1025.0 0.0
25/12:00pm 14.8 11.1 7.8 63 3.5 WSW 17 26 9 14 1025.2 1025.2 0.0
25/11:30am 15.8 11.8 8.3 61 3.8 WSW 19 26 10 14 1025.1 1025.1 0.0
25/11:00am 15.3 11.3 8.1 62 3.6 WSW 19 28 10 15 1025.1 1025.1 0.0
25/10:30am 15.5 11.5 9.0 65 3.3 WSW 20 26 11 14 1025.1 1025.1 0.0
25/10:00am 13.5 9.8 8.1 70 2.7 WSW 17 26 9 14 1025.3 1025.3 0.0
25/09:30am 13.3 10.1 8.4 72 2.4 WSW 15 22 8 12 1025.2 1025.2 0.0
25/09:00am 12.9 9.8 9.0 77 2.0 W 15 22 8 12 1024.9 1024.9 0.0
25/08:30am 12.4 9.6 8.7 78 1.8 WSW 13 19 7 10 1024.8 1024.8 0.0
25/08:00am 12.0 9.5 8.3 78 1.8 WSW 11 19 6 10 1024.2 1024.2 0.0
25/07:30am 10.8 8.8 8.7 87 1.0 WSW 9 15 5 8 1023.9 1023.9 0.0
25/07:00am 10.5 8.6 9.1 91 0.7 W 9 17 5 9 1023.6 1023.6 0.0
25/06:30am 10.5 8.6 9.1 91 0.7 W 9 15 5 8 1023.5 1023.5 0.0
25/06:00am 10.7 9.3 9.5 92 0.6 WNW 7 11 4 6 1023.2 1023.2 0.0
25/05:30am 10.6 8.7 9.2 91 0.7 W 9 17 5 9 1023.3 1023.3 0.0
25/05:00am 10.5 8.2 9.1 91 0.7 WNW 11 19 6 10 1023.2 1023.2 0.0
25/04:30am 10.7 8.5 9.5 92 0.6 WNW 11 17 6 9 1022.9 1022.9 0.0
25/04:00am 10.2 7.8 8.8 91 0.7 WNW 11 17 6 9 1022.8 1022.8 0.0
25/03:30am 10.5 7.8 8.9 90 0.8 WNW 13 19 7 10 1022.8 1022.8 0.0
25/03:00am 10.5 7.8 8.8 89 0.8 WNW 13 20 7 11 1023.1 1023.1 0.0
25/02:30am 10.3 7.5 8.6 89 0.8 WNW 13 19 7 10 1023.1 1023.1 0.0
25/02:00am 10.4 7.2 8.3 87 1.0 WNW 15 26 8 14 1023.3 1023.3 0.0
25/01:30am 10.1 6.8 8.0 87 1.0 W 15 20 8 11 1023.5 1023.5 0.0
25/01:00am 10.1 6.8 8.0 87 1.0 WNW 15 24 8 13 1023.5 1023.5 0.0
25/12:30am 10.8 7.2 8.4 85 1.2 W 17 24 9 13 1023.7 1023.7 0.0
25/12:00am 10.5 8.0 8.3 86 1.1 WNW 11 20 6 11 1023.9 1023.9 0.0
 
Date/Time
EST
Temp
°C
App
Temp
°C
Dew
Point
°C
Rel
Hum
%
Delta-T
°C
Wind Press
QNH
hPa
Press
MSL
hPa
Rain since
9am
mm
Dir  Spd
km/h
Gust
km/h
Spd
kts
Gust
kts
24/11:30pm 10.6 7.4 8.5 87 1.0 W 15 24 8 13 1023.9 1023.9 0.0
24/11:00pm 10.5 8.1 8.6 88 0.9 WNW 11 17 6 9 1024.2 1024.2 0.0
24/10:30pm 10.3 7.8 8.4 88 0.9 WNW 11 17 6 9 1024.3 1024.3 0.0
24/10:00pm 10.4 7.9 8.2 86 1.1 WNW 11 20 6 11 1024.4 1024.4 0.0
24/09:30pm 10.2 7.9 7.6 84 1.2 WNW 9 15 5 8 1024.4 1024.4 0.0
24/09:00pm 10.4 8.0 6.9 79 1.6 WNW 9 15 5 8 1024.3 1024.3 0.0
24/08:30pm 10.8 8.3 6.6 75 2.0 W 9 20 5 11 1024.2 1024.2 0.0
24/08:00pm 11.0 8.7 5.7 70 2.4 WNW 7 13 4 7 1024.2 1024.2 0.0
24/07:30pm 10.8 9.1 5.8 71 2.3 WSW 4 7 2 4 1024.2 1024.2 0.0
24/07:00pm 11.4 9.4 6.3 71 2.4 W 6 9 3 5 1024.1 1024.1 0.0
24/06:30pm 12.5 10.4 6.8 68 2.7 WSW 7 11 4 6 1023.9 1023.9 0.0
24/06:00pm 12.7 8.7 6.5 66 2.9 WSW 17 24 9 13 1023.6 1023.6 0.0
24/05:30pm 13.6 9.1 6.2 61 3.5 WSW 19 28 10 15 1023.4 1023.4 0.0
24/05:00pm 14.1 9.3 4.9 54 4.3 WSW 19 26 10 14 1023.2 1023.2 0.0
24/04:30pm 14.6 9.7 5.1 53 4.5 WSW 20 33 11 18 1023.1 1023.1 0.0
24/04:00pm 14.8 9.6 5.3 53 4.5 WSW 22 33 12 18 1023.1 1023.1 0.0
24/03:30pm 15.5 10.7 4.8 49 5.0 WSW 19 30 10 16 1022.8 1022.8 0.0
24/03:00pm 15.4 9.7 4.8 49 5.0 SW 24 35 13 19 1022.7 1022.7 0.0
24/02:30pm 15.1 11.8 7.9 62 3.6 SSW 15 20 8 11 1022.6 1022.6 0.0
24/02:00pm 15.3 11.9 5.8 53 4.5 SSW 13 20 7 11 1022.4 1022.4 0.0
24/01:30pm 14.7 11.5 6.8 59 3.8 SSW 13 28 7 15 1022.5 1022.5 0.0
24/01:00pm 14.7 11.9 7.0 60 3.7 SSW 11 17 6 9 1022.6 1022.6 0.0
24/12:30pm 14.9 12.2 8.8 67 3.1 SW 13 20 7 11 1023.0 1023.0 0.0
24/12:00pm 13.1 8.9 8.4 73 2.3 SSW 20 26 11 14 1023.4 1023.4 0.0
24/11:30am 14.8 10.9 7.1 60 3.8 SW 17 24 9 13 1023.2 1023.2 0.0
24/11:00am 14.7 11.4 8.0 64 3.3 WSW 15 24 8 13 1023.0 1023.0 0.0
24/10:30am 12.6 9.8 8.5 76 2.0 SW 13 17 7 9 1023.0 1023.0 0.0
24/10:00am 13.9 11.0 8.3 69 2.8 WSW 13 17 7 9 1022.6 1022.6 0.0
24/09:30am 13.0 8.5 6.8 66 3.0 WSW 20 35 11 19 1022.6 1022.6 0.0
24/09:00am 12.3 9.9 8.6 78 1.8 W 11 20 6 11 1022.3 1022.3 3.4
24/08:30am 11.1 8.9 8.0 81 1.5 W 9 17 5 9 1022.1 1022.1 3.4
24/08:00am 9.7 7.8 7.6 87 1.0 WNW 7 11 4 6 1021.6 1021.6 3.4
24/07:30am 9.8 7.5 7.4 85 1.1 W 9 13 5 7 1021.2 1021.2 3.4
24/07:00am 9.9 6.9 7.8 87 1.0 WSW 13 22 7 12 1020.9 1020.9 3.4
24/06:30am 9.4 7.2 7.8 90 0.8 W 9 13 5 7 1020.4 1020.4 3.4
24/06:00am 10.0 6.0 8.3 89 0.8 SSW 19 28 10 15 1020.2 1020.2 3.4
24/05:30am 10.0 7.4 7.9 87 1.0 W 11 17 6 9 1019.2 1019.2 3.0
24/05:00am 10.4 6.8 8.2 86 1.1 WSW 17 26 9 14 1018.9 1018.9 3.0
24/04:30am 10.5 6.9 8.3 86 1.1 W 17 33 9 18 1018.3 1018.3 3.0
24/04:00am 10.3 6.7 8.2 87 1.0 W 17 26 9 14 1017.6 1017.6 3.0
24/03:30am 10.2 6.6 8.3 88 0.9 W 17 32 9 17 1017.0 1017.0 3.0
24/03:00am 10.3 6.7 8.4 88 0.9 WNW 17 24 9 13 1016.9 1016.9 3.0
24/02:30am 10.4 6.5 8.5 88 0.9 WNW 19 28 10 15 1016.9 1016.9 3.0
24/02:00am 10.4 5.9 8.7 89 0.8 W 22 33 12 18 1016.8 1016.8 3.0
24/01:30am 10.8 6.1 9.4 91 0.7 WNW 24 37 13 20 1016.5 1016.5 3.0
24/01:00am 10.8 6.8 9.2 90 0.8 WNW 20 33 11 18 1016.1 1016.1 2.8
24/12:30am 11.1 8.9 9.5 90 0.8 WNW 11 20 6 11 1015.6 1015.6 2.8
24/12:00am 11.5 8.6 9.6 88 1.0 W 15 20 8 11 1015.8 1015.8 2.6
 
Date/Time
EST
Temp
°C
App
Temp
°C
Dew
Point
°C
Rel
Hum
%
Delta-T
°C
Wind Press
QNH
hPa
Press
MSL
hPa
Rain since
9am
mm
Dir  Spd
km/h
Gust
km/h
Spd
kts
Gust
kts
23/11:30pm 11.5 6.9 9.6 88 1.0 W 24 35 13 19 1015.7 1015.7 1.6
23/11:00pm 12.2 5.9 9.6 84 1.3 WSW 33 50 18 27 1015.2 1015.2 0.6
23/10:39pm 13.0 7.0 10.0 82 1.5 WSW 32 52 17 28 1014.6 1014.6 0.6
23/10:30pm 13.5 7.7 10.9 84 1.4 WSW 32 46 17 25 1014.4 1014.4 0.6
23/10:26pm 13.8 8.8 11.1 84 1.4 W 28 46 15 25 1014.3 1014.3 0.6
23/10:00pm 14.9 12.6 12.9 88 1.1 WNW 17 26 9 14 1013.6 1013.6 0.6
23/09:30pm 15.8 13.7 12.4 80 1.9 W 15 30 8 16 1013.0 1013.0 0.2
23/09:00pm 16.1 13.0 11.7 75 2.4 W 19 32 10 17 1012.6 1012.6 0.0
23/08:30pm 17.1 13.4 10.2 64 3.7 WSW 20 32 11 17 1012.4 1012.4 0.0
23/08:00pm 19.3 14.9 8.9 51 5.4 SW 22 30 12 16 1012.0 1012.0 0.0
23/07:30pm 22.2 18.0 5.6 34 8.3 NNW 17 24 9 13 1010.5 1010.5 0.0
23/07:00pm 21.8 18.8 7.6 40 7.4 N 13 19 7 10 1010.1 1010.1 0.0
23/06:30pm 21.3 18.4 8.2 43 6.9 N 13 17 7 9 1010.5 1010.5 0.0
23/06:00pm 21.9 18.5 7.7 40 7.4 NNE 15 20 8 11 1010.8 1010.8 0.0
23/05:30pm 22.9 19.8 7.1 36 8.2 N 13 19 7 10 1011.1 1011.1 0.0
23/05:00pm 23.7 20.4 6.5 33 8.9 N 13 20 7 11 1011.6 1011.6 0.0
23/04:30pm 24.3 19.8 6.1 31 9.3 N 19 26 10 14 1011.9 1011.9 0.0
23/04:00pm 25.1 20.9 5.8 29 9.9 NNW 17 26 9 14 1012.3 1012.3 0.0
23/03:30pm 25.2 19.6 5.4 28 10.1 NNW 24 35 13 19 1012.8 1012.8 0.0
23/03:00pm 25.0 19.3 4.7 27 10.2 NNW 24 39 13 21 1013.1 1013.1 0.0
23/02:30pm 25.6 19.7 4.1 25 10.7 NNW 24 43 13 23 1013.3 1013.3 0.0
23/02:00pm 25.8 18.8 4.3 25 10.8 NNW 30 43 16 23 1013.5 1013.5 0.0
23/01:38pm 25.8 18.7 3.7 24 10.9 NNW 30 48 16 26 1013.9 1013.9 0.0
23/01:30pm 26.0 19.8 4.5 25 10.8 NNW 26 41 14 22 1014.2 1014.2 0.0
23/01:08pm 26.1 19.5 4.0 24 11.0 NNW 28 46 15 25 1014.5 1014.5 0.0
23/01:00pm 25.9 20.1 4.4 25 10.8 NNW 24 35 13 19 1014.8 1014.8 0.0
23/12:30pm 25.5 19.7 4.6 26 10.5 NNW 24 35 13 19 1015.8 1015.8 0.0
23/12:00pm 25.2 18.6 4.3 26 10.4 NNW 28 43 15 23 1016.6 1016.6 0.0
23/11:30am 24.6 18.0 4.4 27 10.1 NNW 28 44 15 24 1017.4 1017.4 0.0
23/11:00am 24.2 19.6 6.5 32 9.1 NNW 20 35 11 19 1017.8 1017.8 0.0
23/10:30am 20.9 20.6 8.5 45 6.5 CALM 0 0 0 0 1018.3 1018.3 0.0
23/10:00am 18.1 17.7 8.1 52 5.1 CALM 0 13 0 7 1019.0 1019.0 0.0
23/09:30am 16.2 14.5 7.7 57 4.3 NNE 6 11 3 6 1019.5 1019.5 0.0
23/09:00am 14.6 12.7 7.4 62 3.5 NNE 7 13 4 7 1019.8 1019.8 0.0
23/08:30am 13.8 13.3 7.8 67 3.0 CALM 0 0 0 0 1020.0 1020.0 0.0
23/08:00am 9.8 9.2 7.4 85 1.1 CALM 0 0 0 0 1020.1 1020.1 0.0
23/07:30am 8.3 7.4 6.1 86 1.0 CALM 0 0 0 0 1020.0 1020.0 0.0
23/07:00am 7.6 6.6 5.6 87 0.9 CALM 0 0 0 0 1019.9 1019.9 0.0
23/06:30am 8.8 8.0 6.6 86 1.0 CALM 0 0 0 0 1020.0 1020.0 0.0
23/06:00am 8.3 7.4 5.9 85 1.1 CALM 0 0 0 0 1020.0 1020.0 0.0
23/05:30am 7.7 6.8 6.2 90 0.7 CALM 0 0 0 0 1020.1 1020.1 0.0
23/05:00am 7.4 6.4 5.5 88 0.8 CALM 0 0 0 0 1020.0 1020.0 0.0
23/04:30am 7.0 5.9 5.3 89 0.8 CALM 0 0 0 0 1019.9 1019.9 0.0
23/04:00am 6.9 5.8 4.9 87 0.9 CALM 0 0 0 0 1020.1 1020.1 0.0
23/03:30am 7.2 6.1 5.2 87 0.9 CALM 0 0 0 0 1020.2 1020.2 0.0
23/03:00am 7.7 6.7 5.5 86 1.0 CALM 0 0 0 0 1020.5 1020.5 0.0
23/02:30am 7.7 6.6 5.0 83 1.2 CALM 0 0 0 0 1020.7 1020.7 0.0
23/02:00am 8.4 7.3 5.3 81 1.4 CALM 0 0 0 0 1020.8 1020.8 0.0
23/01:30am 9.5 8.4 4.9 73 2.1 CALM 0 0 0 0 1021.0 1021.0 0.0
23/01:00am 10.5 9.6 6.1 74 2.0 CALM 0 0 0 0 1021.0 1021.0 0.0
23/12:30am 10.2 9.4 6.4 77 1.8 CALM 0 0 0 0 1021.1 1021.1 0.0
23/12:00am 10.9 10.4 7.8 81 1.5 CALM 0 0 0 0 1021.5 1021.5 0.0
 
Date/Time
EST
Temp
°C
App
Temp
°C
Dew
Point
°C
Rel
Hum
%
Delta-T
°C
Wind Press
QNH
hPa
Press
MSL
hPa
Rain since
9am
mm
Dir  Spd
km/h
Gust
km/h
Spd
kts
Gust
kts
22/11:30pm 10.1 9.8 8.5 90 0.8 CALM 0 0 0 0 1021.9 1021.9 0.0
22/11:00pm 10.4 10.1 8.8 90 0.8 CALM 0 0 0 0 1022.1 1022.1 0.0
22/10:30pm 10.5 10.3 8.9 90 0.8 CALM 0 0 0 0 1022.3 1022.3 0.0
22/10:00pm 10.9 10.8 9.3 90 0.8 CALM 0 0 0 0 1022.3 1022.3 0.0

Latest Capital City Observations: Canberra | Sydney | Melbourne | Brisbane | Adelaide | Perth | Hobart | Darwin

Other formats

Comma delimited format used in spreadsheet applications
http://www.bom.gov.au/fwo/IDV60901/IDV60901.94857.axf

JavaScript Object Notation format (JSON) in row-major order
http://www.bom.gov.au/fwo/IDV60901/IDV60901.94857.json

Data quality

Most of these data are generated automatically and are frequently updated. Quality checks on data are not normally performed. It is possible for incorrect values to appear. Refer to information at About Latest Weather Observations and please check the disclaimer before using these data.